Time;durP1;ratioP1;P1;durP2;ratioP2;P2;SDS_P1;SDS_P2;PMS_P1;PMS_P2;Temp;Humidity;BMP_temperature;BMP_pressure;BME280_temperature;BME280_humidity;BME280_pressure;Samples;Min_cycle;Max_cycle;Signal;HPM_P1;HPM_P2
2021/08/20 00:00:58;;;;;;;8.60;7.80;;;15.40;99.90;;;;;;5095336;28;20189;-68
2021/08/20 00:03:24;;;;;;;9.03;8.20;;;15.40;99.90;;;;;;5096449;28;20201;-68
2021/08/20 00:05:49;;;;;;;8.93;8.23;;;15.50;99.90;;;;;;5096130;28;20654;-68
2021/08/20 00:08:15;;;;;;;8.30;7.80;;;15.50;99.90;;;;;;5095980;28;20200;-68
2021/08/20 00:10:40;;;;;;;9.00;8.03;;;15.60;99.90;;;;;;5095652;28;20185;-68
2021/08/20 00:13:06;;;;;;;9.37;8.57;;;15.60;99.90;;;;;;5095182;28;20174;-67
2021/08/20 00:15:32;;;;;;;8.40;7.70;;;15.70;99.90;;;;;;5094773;28;20178;-67
2021/08/20 00:17:58;;;;;;;8.07;7.47;;;15.70;99.90;;;;;;5095250;28;20839;-68
2021/08/20 00:20:24;;;;;;;8.07;7.47;;;15.70;99.90;;;;;;5093320;28;20333;-68
2021/08/20 00:22:50;;;;;;;7.57;7.00;;;15.70;99.90;;;;;;5095424;28;20200;-67
2021/08/20 00:25:15;;;;;;;8.77;8.00;;;15.80;99.90;;;;;;5096265;28;20166;-68
2021/08/20 00:27:41;;;;;;;8.50;7.80;;;15.80;99.90;;;;;;5095919;28;20180;-68
2021/08/20 00:30:08;;;;;;;8.13;7.43;;;15.80;99.90;;;;;;5094533;28;20204;-67
2021/08/20 00:32:37;;;;;;;10.13;9.23;;;15.80;99.90;;;;;;5095118;28;20173;-69
2021/08/20 00:35:04;;;;;;;8.87;8.17;;;15.80;99.90;;;;;;5094851;28;20169;-67
2021/08/20 00:37:30;;;;;;;8.10;7.40;;;15.80;99.90;;;;;;5095828;28;20264;-68
2021/08/20 00:39:59;;;;;;;8.33;7.63;;;15.80;99.90;;;;;;5094736;28;20612;-68
2021/08/20 00:42:25;;;;;;;8.67;7.97;;;15.80;99.90;;;;;;5092593;28;20185;-68
2021/08/20 00:44:51;;;;;;;8.80;7.97;;;15.80;99.90;;;;;;5094309;28;20249;-67
2021/08/20 00:47:17;;;;;;;8.93;8.23;;;15.80;99.90;;;;;;5094812;28;20658;-69
2021/08/20 00:49:43;;;;;;;8.97;8.23;;;15.80;99.90;;;;;;5095059;28;20177;-67
2021/08/20 00:52:09;;;;;;;8.20;7.60;;;15.80;99.90;;;;;;5095934;28;20211;-68
2021/08/20 00:54:35;;;;;;;8.67;7.93;;;15.90;99.90;;;;;;5094802;28;20268;-69
2021/08/20 00:57:03;;;;;;;11.07;8.10;;;15.90;99.90;;;;;;5094389;28;20241;-67
2021/08/20 00:59:29;;;;;;;8.30;7.60;;;15.80;99.90;;;;;;5094559;28;20180;-67
2021/08/20 01:01:54;;;;;;;9.23;8.47;;;15.80;99.90;;;;;;5094713;28;20189;-69
2021/08/20 01:04:20;;;;;;;9.03;8.37;;;15.80;99.90;;;;;;5094026;28;20197;-68
2021/08/20 01:06:46;;;;;;;9.20;8.40;;;15.80;99.90;;;;;;5094271;28;20173;-68
2021/08/20 01:09:12;;;;;;;8.43;7.63;;;15.80;99.90;;;;;;5094109;28;20631;-66
2021/08/20 01:11:37;;;;;;;10.27;8.60;;;15.80;99.90;;;;;;5094901;28;20193;-68
2021/08/20 01:14:05;;;;;;;8.30;7.60;;;15.80;99.90;;;;;;5094640;28;20174;-68
2021/08/20 01:16:31;;;;;;;9.97;8.67;;;15.80;99.90;;;;;;5094642;28;20260;-68
2021/08/20 01:18:57;;;;;;;7.80;7.20;;;15.90;99.90;;;;;;5093994;28;20205;-68
2021/08/20 01:21:24;;;;;;;9.10;8.03;;;15.90;99.90;;;;;;5073436;28;20638;-68
2021/08/20 01:23:52;;;;;;;9.00;8.20;;;15.90;99.90;;;;;;5074741;28;20208;-68
2021/08/20 01:26:18;;;;;;;9.20;8.40;;;16.00;99.90;;;;;;5094227;28;20166;-68
2021/08/20 01:28:44;;;;;;;8.43;7.83;;;16.00;99.90;;;;;;5094335;28;20169;-68
2021/08/20 01:31:12;;;;;;;8.80;7.90;;;16.00;99.90;;;;;;5092166;28;20655;-68
2021/08/20 01:33:39;;;;;;;9.83;9.10;;;16.10;99.90;;;;;;5094029;28;20567;-68
2021/08/20 01:36:05;;;;;;;8.57;7.87;;;16.00;99.90;;;;;;5093578;28;20181;-68
2021/08/20 01:38:33;;;;;;;9.70;8.80;;;16.00;99.90;;;;;;5093763;28;20318;-67
2021/08/20 01:40:59;;;;;;;9.37;8.70;;;16.00;99.90;;;;;;5093502;28;20670;-69
2021/08/20 01:43:25;;;;;;;10.07;9.17;;;15.90;99.90;;;;;;5093429;28;20201;-68
2021/08/20 01:45:51;;;;;;;9.27;8.57;;;15.90;99.90;;;;;;5094013;28;20182;-67
2021/08/20 01:48:17;;;;;;;9.83;8.93;;;15.90;99.90;;;;;;5093242;28;20172;-68
2021/08/20 01:50:43;;;;;;;9.97;8.03;;;15.90;99.90;;;;;;5093324;28;20189;-67
2021/08/20 01:53:12;;;;;;;8.80;8.20;;;15.90;99.90;;;;;;5093430;28;20238;-66
2021/08/20 01:55:38;;;;;;;9.37;8.67;;;15.80;99.90;;;;;;5093580;28;20178;-68
2021/08/20 01:58:04;;;;;;;8.53;7.73;;;15.80;99.90;;;;;;5094114;28;20257;-68
2021/08/20 02:00:31;;;;;;;9.70;8.90;;;15.80;99.90;;;;;;5092585;28;20197;-68
2021/08/20 02:02:56;;;;;;;8.90;8.17;;;15.80;99.90;;;;;;5093466;28;20193;-69
2021/08/20 02:05:22;;;;;;;9.33;8.40;;;15.70;99.90;;;;;;5093353;28;20222;-68
2021/08/20 02:07:48;;;;;;;10.43;9.33;;;15.70;99.90;;;;;;5093298;28;20174;-67
2021/08/20 02:10:13;;;;;;;9.30;8.40;;;15.70;99.90;;;;;;5072545;28;20190;-67
2021/08/20 02:12:39;;;;;;;9.80;9.00;;;15.70;99.90;;;;;;5072624;28;20174;-68
2021/08/20 02:15:06;;;;;;;9.23;8.33;;;15.70;99.90;;;;;;5091895;28;20244;-70
2021/08/20 02:17:31;;;;;;;12.30;8.87;;;15.70;99.90;;;;;;5093109;28;20527;-68
2021/08/20 02:19:57;;;;;;;10.17;8.87;;;15.70;99.90;;;;;;5092087;28;20188;-69
2021/08/20 02:22:23;;;;;;;10.00;9.13;;;15.70;99.90;;;;;;5092367;28;20174;-69
2021/08/20 02:24:52;;;;;;;9.53;8.73;;;15.60;99.90;;;;;;5092021;28;20184;-69
2021/08/20 02:27:18;;;;;;;10.80;9.43;;;15.60;99.90;;;;;;5093124;28;20195;-67
2021/08/20 02:29:44;;;;;;;9.63;8.93;;;15.60;99.90;;;;;;5092621;28;20253;-68
2021/08/20 02:32:09;;;;;;;10.40;9.50;;;15.60;99.90;;;;;;5093543;28;20193;-68
2021/08/20 02:34:35;;;;;;;9.67;8.80;;;15.60;99.90;;;;;;5091543;28;20184;-68
2021/08/20 02:37:01;;;;;;;11.10;9.63;;;15.50;99.90;;;;;;5093051;28;20642;-68
2021/08/20 02:39:26;;;;;;;10.07;8.97;;;15.50;99.90;;;;;;5092376;28;20177;-68
2021/08/20 02:41:52;;;;;;;12.07;11.03;;;15.40;99.90;;;;;;5093249;28;20193;-69
2021/08/20 02:44:17;;;;;;;10.87;9.97;;;15.40;99.90;;;;;;5092382;28;20292;-69
2021/08/20 02:46:44;;;;;;;10.80;9.90;;;15.30;99.90;;;;;;5093020;28;20172;-69
2021/08/20 02:49:10;;;;;;;10.43;9.60;;;15.30;99.90;;;;;;5092822;28;20173;-68
2021/08/20 02:51:36;;;;;;;10.93;9.80;;;15.30;99.90;;;;;;5092388;28;20199;-69
2021/08/20 02:54:02;;;;;;;11.23;10.13;;;15.30;99.90;;;;;;5093139;28;20184;-69
2021/08/20 02:56:27;;;;;;;10.33;9.60;;;15.20;99.90;;;;;;5092844;28;20161;-68
2021/08/20 02:58:53;;;;;;;11.73;10.83;;;15.20;99.90;;;;;;5092626;28;20184;-68
2021/08/20 03:01:19;;;;;;;10.57;9.77;;;15.10;99.90;;;;;;5092965;28;20249;-67
2021/08/20 03:03:44;;;;;;;10.70;9.70;;;15.10;99.90;;;;;;5092857;28;20274;-68
2021/08/20 03:06:10;;;;;;;11.27;9.63;;;15.10;99.90;;;;;;5096393;28;20249;-68
2021/08/20 03:08:39;;;;;;;9.63;8.83;;;15.00;99.90;;;;;;5096013;28;20543;-68
2021/08/20 03:11:04;;;;;;;11.77;10.67;;;15.00;99.90;;;;;;5096993;28;20193;-68
2021/08/20 03:13:30;;;;;;;11.67;10.60;;;15.00;99.90;;;;;;5097046;28;20665;-69
2021/08/20 03:15:56;;;;;;;12.77;11.73;;;15.00;99.90;;;;;;5097360;28;20170;-68
2021/08/20 03:18:21;;;;;;;11.83;10.30;;;15.00;99.90;;;;;;5096728;28;20525;-68
2021/08/20 03:20:48;;;;;;;11.47;10.40;;;15.00;99.90;;;;;;5095482;28;20215;-69
2021/08/20 03:23:14;;;;;;;11.03;10.00;;;15.00;99.90;;;;;;5097078;28;20192;-69
2021/08/20 03:25:40;;;;;;;11.97;10.23;;;15.10;99.90;;;;;;5097352;28;20165;-68
2021/08/20 03:28:07;;;;;;;11.20;9.97;;;15.10;99.90;;;;;;5097129;28;20184;-68
2021/08/20 03:30:33;;;;;;;11.43;10.40;;;15.20;99.90;;;;;;5096404;28;20221;-68
2021/08/20 03:32:59;;;;;;;15.00;10.97;;;15.20;99.90;;;;;;5096581;28;20253;-69
2021/08/20 03:35:24;;;;;;;12.07;10.87;;;15.30;99.90;;;;;;5096974;28;20227;-68
2021/08/20 03:37:50;;;;;;;16.27;10.67;;;15.30;99.90;;;;;;5096549;28;20204;-68
2021/08/20 03:40:16;;;;;;;11.90;10.70;;;15.40;99.90;;;;;;5095734;28;20279;-69
2021/08/20 03:42:41;;;;;;;11.53;10.30;;;15.50;99.90;;;;;;5096211;28;20196;-69
2021/08/20 03:45:08;;;;;;;14.40;13.00;;;15.40;99.90;;;;;;5095145;28;20184;-69
2021/08/20 03:47:35;;;;;;;12.00;10.70;;;15.50;99.90;;;;;;5096089;28;20168;-68
2021/08/20 03:50:02;;;;;;;12.67;11.47;;;15.50;99.90;;;;;;5095302;28;20177;-68
2021/08/20 03:52:28;;;;;;;12.80;11.60;;;15.60;99.90;;;;;;5095938;28;20201;-69
2021/08/20 03:54:53;;;;;;;12.37;11.23;;;15.70;99.90;;;;;;5095547;28;20602;-69
2021/08/20 03:57:19;;;;;;;12.03;10.90;;;15.70;99.90;;;;;;5096254;28;20180;-69
2021/08/20 03:59:44;;;;;;;11.73;10.33;;;15.70;99.90;;;;;;5095459;28;20201;-67
2021/08/20 04:02:10;;;;;;;11.87;10.67;;;15.80;99.90;;;;;;5095136;28;20263;-69
2021/08/20 04:04:35;;;;;;;13.43;10.43;;;15.80;99.90;;;;;;5095282;28;20205;-68
2021/08/20 04:07:02;;;;;;;12.20;10.90;;;15.80;99.90;;;;;;5095527;28;20170;-68
2021/08/20 04:09:28;;;;;;;12.53;10.97;;;15.80;99.90;;;;;;5094847;28;20173;-69
2021/08/20 04:11:54;;;;;;;12.73;10.37;;;15.80;99.90;;;;;;5095317;28;20201;-68
2021/08/20 04:14:20;;;;;;;11.93;10.70;;;15.80;99.90;;;;;;5095466;28;20647;-68
2021/08/20 04:16:45;;;;;;;11.43;10.33;;;15.80;99.90;;;;;;5094244;28;20240;-68
2021/08/20 04:19:11;;;;;;;12.97;10.93;;;15.80;99.90;;;;;;5094924;28;20205;-66
2021/08/20 04:21:38;;;;;;;13.63;10.77;;;15.80;99.90;;;;;;5187810;22;20600;-68
2021/08/20 04:24:04;;;;;;;11.37;10.30;;;15.90;99.90;;;;;;5092629;28;20201;-67
2021/08/20 04:26:29;;;;;;;12.17;10.70;;;15.90;99.90;;;;;;5093040;28;20180;-66
2021/08/20 04:28:55;;;;;;;12.57;11.30;;;16.00;99.90;;;;;;5094167;28;20576;-68
2021/08/20 04:31:20;;;;;;;13.83;11.00;;;15.90;99.90;;;;;;5092327;28;20280;-68
2021/08/20 04:33:46;;;;;;;13.97;12.63;;;15.90;99.90;;;;;;5092824;28;20200;-68
2021/08/20 04:36:12;;;;;;;13.53;11.17;;;15.80;99.90;;;;;;5094260;28;20169;-67
2021/08/20 04:38:39;;;;;;;14.17;11.73;;;15.90;99.90;;;;;;5093885;28;20181;-68
2021/08/20 04:41:05;;;;;;;12.40;11.20;;;15.90;99.90;;;;;;5093707;28;20190;-68
2021/08/20 04:43:31;;;;;;;12.67;11.43;;;16.00;99.90;;;;;;5092197;28;20209;-68
2021/08/20 04:45:56;;;;;;;15.47;11.93;;;16.00;99.90;;;;;;5094066;28;20192;-68
2021/08/20 04:48:22;;;;;;;11.87;10.33;;;16.10;99.90;;;;;;5093753;28;20230;-68
2021/08/20 04:50:51;;;;;;;12.30;10.40;;;16.00;99.90;;;;;;5093580;28;20246;-68
2021/08/20 04:53:18;;;;;;;12.50;10.33;;;16.10;99.90;;;;;;5092750;28;20177;-68
2021/08/20 04:55:44;;;;;;;14.63;11.00;;;16.10;99.90;;;;;;5094014;28;20252;-68
2021/08/20 04:58:09;;;;;;;13.13;11.40;;;16.10;99.90;;;;;;5093536;28;20625;-68
2021/08/20 05:00:35;;;;;;;13.13;11.10;;;16.10;99.90;;;;;;5093247;28;20238;-68
2021/08/20 05:03:01;;;;;;;13.20;11.50;;;16.20;99.90;;;;;;5093252;28;20557;-68
2021/08/20 05:05:27;;;;;;;11.40;10.27;;;16.20;99.90;;;;;;5093484;28;20264;-69
2021/08/20 05:07:53;;;;;;;14.97;11.10;;;16.20;99.90;;;;;;5093418;28;20186;-67
2021/08/20 05:10:19;;;;;;;11.63;10.43;;;16.30;99.90;;;;;;5093137;28;20170;-67
2021/08/20 05:12:44;;;;;;;12.93;11.63;;;16.30;99.90;;;;;;5093188;28;20227;-67
2021/08/20 05:15:10;;;;;;;13.63;12.27;;;16.30;99.90;;;;;;5092246;28;20616;-69
2021/08/20 05:17:36;;;;;;;13.07;11.10;;;16.40;99.90;;;;;;5092084;28;20185;-68
2021/08/20 05:20:03;;;;;;;12.60;11.30;;;16.40;99.90;;;;;;5091729;28;20187;-68
2021/08/20 05:22:44;;;;;;;11.73;10.60;;;16.50;99.90;;;;;;5092433;28;20223;-68
2021/08/20 05:25:10;;;;;;;12.60;11.40;;;16.50;99.90;;;;;;5092460;28;20165;-67
2021/08/20 05:27:35;;;;;;;11.93;10.73;;;16.60;99.90;;;;;;5091573;28;20646;-68
2021/08/20 05:30:01;;;;;;;14.30;11.00;;;16.50;99.90;;;;;;5091256;28;20256;-68
2021/08/20 05:32:26;;;;;;;11.40;10.40;;;16.50;99.90;;;;;;5092718;28;20251;-68
2021/08/20 05:34:52;;;;;;;11.50;10.37;;;16.60;99.90;;;;;;5092545;28;20174;-68
2021/08/20 05:37:18;;;;;;;12.40;11.17;;;16.70;99.90;;;;;;5092804;28;20227;-68
2021/08/20 05:39:43;;;;;;;13.00;11.57;;;16.80;99.90;;;;;;5092766;28;20584;-68
2021/08/20 05:42:09;;;;;;;14.60;11.73;;;16.90;99.90;;;;;;5091281;28;20205;-68
2021/08/20 05:44:34;;;;;;;13.40;11.17;;;17.00;99.90;;;;;;5091599;28;20215;-68
2021/08/20 05:47:00;;;;;;;12.90;11.60;;;17.10;99.90;;;;;;5092593;28;20597;-68
2021/08/20 05:49:25;;;;;;;13.33;11.80;;;17.20;99.90;;;;;;5092573;28;20173;-68
2021/08/20 05:51:51;;;;;;;13.20;11.87;;;17.30;99.90;;;;;;5092306;28;20201;-68
2021/08/20 05:54:17;;;;;;;15.50;11.87;;;17.30;99.90;;;;;;5092807;28;20530;-69
2021/08/20 05:56:42;;;;;;;15.20;11.80;;;17.40;99.90;;;;;;5092374;28;20188;-68
2021/08/20 05:59:08;;;;;;;14.27;11.33;;;17.50;99.90;;;;;;5092542;28;20209;-68
2021/08/20 06:01:34;;;;;;;12.90;11.60;;;17.50;99.90;;;;;;5090814;28;20221;-68
2021/08/20 06:03:59;;;;;;;12.97;11.40;;;17.60;99.90;;;;;;5107131;28;20201;-68
2021/08/20 06:06:26;;;;;;;13.40;12.10;;;17.70;99.90;;;;;;5092162;28;20179;-67
2021/08/20 06:08:51;;;;;;;13.40;12.00;;;17.80;99.90;;;;;;5091552;28;20319;-68
2021/08/20 06:11:17;;;;;;;11.90;10.77;;;17.90;99.90;;;;;;5091956;28;20268;-67
2021/08/20 06:13:43;;;;;;;13.07;11.67;;;17.90;99.90;;;;;;5091950;28;20526;-68
2021/08/20 06:16:09;;;;;;;12.20;11.00;;;18.00;99.90;;;;;;5092166;28;20753;-69
2021/08/20 06:18:35;;;;;;;12.37;11.20;;;18.10;99.90;;;;;;5091887;28;20259;-68
2021/08/20 06:21:01;;;;;;;27.57;11.73;;;18.20;99.90;;;;;;5090425;28;20213;-68
2021/08/20 06:23:26;;;;;;;12.57;11.27;;;18.40;99.90;;;;;;5091767;28;20205;-70
2021/08/20 06:25:52;;;;;;;12.67;11.30;;;18.60;99.90;;;;;;5090787;28;20522;-69
2021/08/20 06:28:18;;;;;;;11.27;10.27;;;18.60;99.90;;;;;;5091931;28;20209;-69
2021/08/20 06:30:46;;;;;;;14.33;12.30;;;18.80;99.90;;;;;;5091510;28;20189;-68
2021/08/20 06:33:13;;;;;;;11.77;10.63;;;19.10;99.90;;;;;;5091820;28;20189;-69
2021/08/20 06:35:38;;;;;;;12.07;10.97;;;19.30;99.90;;;;;;5091495;28;20170;-69
2021/08/20 06:38:04;;;;;;;13.37;11.90;;;19.40;99.90;;;;;;5091730;28;20181;-69
2021/08/20 06:40:29;;;;;;;12.10;11.00;;;19.50;99.90;;;;;;5090581;28;20715;-68
2021/08/20 06:42:55;;;;;;;13.23;11.97;;;19.70;99.90;;;;;;5091488;28;20283;-69
2021/08/20 06:45:20;;;;;;;12.00;10.83;;;19.90;99.90;;;;;;5090710;28;20228;-69
2021/08/20 06:47:46;;;;;;;11.47;10.37;;;20.10;99.90;;;;;;5091564;28;20523;-68
2021/08/20 06:50:12;;;;;;;11.30;10.10;;;20.30;99.90;;;;;;5091342;28;20169;-68
2021/08/20 06:52:38;;;;;;;10.67;9.47;;;20.50;99.90;;;;;;5091386;28;20181;-69
2021/08/20 06:55:04;;;;;;;10.77;9.67;;;21.00;99.90;;;;;;5091497;28;20176;-69
2021/08/20 06:57:30;;;;;;;9.90;8.97;;;21.60;99.90;;;;;;5091646;28;20222;-69
2021/08/20 06:59:56;;;;;;;9.93;8.97;;;21.90;99.90;;;;;;5091071;28;20248;-69
2021/08/20 07:02:22;;;;;;;10.27;9.27;;;22.10;99.90;;;;;;5091559;28;20212;-69
2021/08/20 07:04:49;;;;;;;10.00;9.00;;;21.90;99.90;;;;;;5091442;28;20842;-69
2021/08/20 07:07:15;;;;;;;10.90;9.77;;;21.90;99.90;;;;;;5091592;28;20201;-69
2021/08/20 07:09:41;;;;;;;11.50;9.90;;;21.90;99.90;;;;;;5091457;28;20223;-69
2021/08/20 07:12:07;;;;;;;9.13;8.18;;;22.10;99.90;;;;;;5091129;28;20197;-68
2021/08/20 07:14:32;;;;;;;9.13;8.23;;;22.50;99.90;;;;;;5091447;28;20182;-69
2021/08/20 07:16:58;;;;;;;9.00;8.10;;;22.80;99.90;;;;;;5091049;28;20223;-68
2021/08/20 07:19:23;;;;;;;8.88;8.05;;;23.30;99.90;;;;;;5091438;28;20174;-70
2021/08/20 07:21:49;;;;;;;9.48;8.68;;;23.70;99.90;;;;;;5091051;28;20737;-68
2021/08/20 07:24:15;;;;;;;9.80;8.35;;;23.30;99.90;;;;;;5091351;28;20220;-69
2021/08/20 07:26:40;;;;;;;10.05;9.13;;;23.20;99.90;;;;;;5091088;28;20181;-67
2021/08/20 07:29:06;;;;;;;8.93;8.02;;;23.10;99.90;;;;;;5091273;28;20173;-68
2021/08/20 07:31:33;;;;;;;9.32;8.50;;;22.80;99.90;;;;;;5090532;28;20197;-68
2021/08/20 07:33:59;;;;;;;9.98;8.98;;;22.50;99.90;;;;;;5089106;28;20203;-69
2021/08/20 07:36:24;;;;;;;9.53;8.63;;;22.30;99.90;;;;;;5091329;28;20522;-69
2021/08/20 07:38:50;;;;;;;8.82;8.13;;;22.30;99.90;;;;;;5090995;28;20186;-68
2021/08/20 07:41:16;;;;;;;8.93;8.07;;;22.50;99.90;;;;;;5090670;28;20193;-68
2021/08/20 07:43:41;;;;;;;8.52;7.30;;;22.50;99.90;;;;;;5091101;28;20576;-69
2021/08/20 07:46:07;;;;;;;8.50;6.82;;;23.00;99.90;;;;;;5089150;28;20193;-68
2021/08/20 07:48:32;;;;;;;8.65;7.75;;;23.70;99.90;;;;;;5090757;28;20170;-68
2021/08/20 07:50:58;;;;;;;7.70;7.00;;;23.60;99.90;;;;;;5091144;28;20659;-69
2021/08/20 07:53:24;;;;;;;8.77;7.60;;;23.50;99.90;;;;;;5095018;28;20176;-69
2021/08/20 07:55:50;;;;;;;10.02;7.80;;;23.10;99.90;;;;;;5094800;28;20169;-69
2021/08/20 07:58:16;;;;;;;8.27;7.57;;;23.00;99.90;;;;;;5094913;28;20257;-68
2021/08/20 08:00:41;;;;;;;7.57;6.88;;;23.20;99.90;;;;;;5094202;28;20804;-68
2021/08/20 08:03:07;;;;;;;8.93;8.02;;;23.50;99.90;;;;;;5094655;28;20193;-68
2021/08/20 08:05:33;;;;;;;8.13;6.75;;;23.40;99.90;;;;;;5094662;28;20260;-67
2021/08/20 08:07:59;;;;;;;8.18;7.40;;;23.00;99.90;;;;;;5094611;28;20533;-68
2021/08/20 08:10:25;;;;;;;7.07;6.47;;;23.00;99.90;;;;;;5092496;28;20184;-68
2021/08/20 08:12:52;;;;;;;7.80;7.20;;;23.00;99.90;;;;;;5093920;28;20352;-68
2021/08/20 08:15:18;;;;;;;7.57;6.88;;;22.90;99.90;;;;;;5094534;28;20545;-68
2021/08/20 08:17:44;;;;;;;8.02;7.25;;;23.10;99.90;;;;;;5093303;28;20169;-68
2021/08/20 08:20:12;;;;;;;7.72;6.95;;;23.30;99.90;;;;;;5093880;28;20196;-69
2021/08/20 08:22:38;;;;;;;7.38;6.78;;;23.40;99.90;;;;;;5094107;28;20269;-69
2021/08/20 08:25:05;;;;;;;8.48;7.57;;;23.30;99.90;;;;;;5092797;28;20181;-69
2021/08/20 08:27:30;;;;;;;8.60;7.80;;;22.90;99.90;;;;;;5093912;28;20189;-68
2021/08/20 08:29:56;;;;;;;7.73;7.13;;;22.50;99.90;;;;;;5093749;28;20186;-68
2021/08/20 08:32:21;;;;;;;7.73;7.03;;;22.30;99.90;;;;;;5094199;28;20207;-68
2021/08/20 08:34:47;;;;;;;7.83;7.13;;;22.30;99.90;;;;;;5093589;28;20185;-69
2021/08/20 08:37:12;;;;;;;8.77;8.07;;;22.30;99.90;;;;;;5094317;28;20173;-69
2021/08/20 08:39:39;;;;;;;8.40;7.70;;;22.40;99.90;;;;;;5093691;28;20181;-69
2021/08/20 08:42:06;;;;;;;9.00;8.15;;;22.50;99.90;;;;;;5093990;28;20193;-69
2021/08/20 08:44:32;;;;;;;8.55;7.72;;;22.50;99.90;;;;;;5093277;28;20205;-69
2021/08/20 08:46:59;;;;;;;8.45;7.65;;;22.60;99.90;;;;;;5093668;28;20170;-68
2021/08/20 08:49:26;;;;;;;8.60;7.78;;;22.50;99.90;;;;;;5093459;28;20180;-68
2021/08/20 08:51:52;;;;;;;9.83;8.83;;;22.40;99.90;;;;;;5093723;28;20560;-68
2021/08/20 08:54:17;;;;;;;10.50;9.10;;;22.00;99.90;;;;;;5093639;28;20211;-68
2021/08/20 08:56:44;;;;;;;11.43;10.23;;;21.60;99.90;;;;;;5093691;28;20182;-68
2021/08/20 08:59:10;;;;;;;11.50;10.30;;;20.90;99.90;;;;;;5093439;28;20264;-68
2021/08/20 09:01:38;;;;;;;13.57;12.23;;;20.30;99.90;;;;;;5093349;28;20215;-68
2021/08/20 09:04:06;;;;;;;13.40;11.97;;;19.60;99.90;;;;;;5092433;28;20297;-68
2021/08/20 09:06:43;;;;;;;12.60;10.57;;;19.10;99.90;;;;;;5092045;28;20208;-68
2021/08/20 09:09:14;;;;;;;15.23;10.77;;;18.80;99.90;;;;;;5092523;28;20180;-68
2021/08/20 09:11:41;;;;;;;13.60;10.80;;;18.70;99.90;;;;;;5092738;28;20606;-67
2021/08/20 09:14:08;;;;;;;9.47;8.57;;;18.50;99.90;;;;;;5093380;28;20177;-68
2021/08/20 09:16:39;;;;;;;8.47;7.60;;;18.30;99.90;;;;;;5092151;28;20264;-68
2021/08/20 09:19:13;;;;;;;8.73;7.93;;;18.30;99.90;;;;;;5093549;28;20519;-67
2021/08/20 09:21:40;;;;;;;8.27;7.60;;;18.30;99.90;;;;;;5091527;28;20300;-68
2021/08/20 09:24:30;;;;;;;8.33;7.53;;;18.30;99.90;;;;;;5091730;28;20243;-68
2021/08/20 09:27:18;;;;;;;8.33;7.60;;;18.50;99.90;;;;;;5093174;28;20282;-68
2021/08/20 09:30:07;;;;;;;7.97;7.37;;;18.80;99.90;;;;;;5092998;28;20173;-68
2021/08/20 09:32:46;;;;;;;8.87;7.70;;;19.00;99.90;;;;;;5092929;28;20228;-68
2021/08/20 09:35:12;;;;;;;7.90;7.20;;;19.20;99.90;;;;;;5093112;28;20177;-67
2021/08/20 09:37:38;;;;;;;7.60;6.77;;;19.30;99.90;;;;;;5094884;28;20169;-69
2021/08/20 09:40:08;;;;;;;6.17;5.77;;;19.30;99.90;;;;;;5092157;28;20548;-68
2021/08/20 09:42:35;;;;;;;6.10;5.80;;;19.20;99.90;;;;;;5092827;28;20209;-67
2021/08/20 09:45:16;;;;;;;5.67;5.37;;;19.20;99.90;;;;;;5092317;28;20522;-68
2021/08/20 09:47:49;;;;;;;5.33;4.93;;;19.30;99.90;;;;;;5092799;28;20185;-68
2021/08/20 09:50:15;;;;;;;5.63;5.33;;;19.50;99.90;;;;;;5092618;28;20166;-68
2021/08/20 09:52:41;;;;;;;5.70;5.40;;;19.80;99.90;;;;;;5092641;28;20185;-69
2021/08/20 09:55:07;;;;;;;5.60;5.30;;;20.00;99.90;;;;;;5092693;28;20180;-69
2021/08/20 09:57:36;;;;;;;5.70;5.27;;;20.10;99.90;;;;;;5092534;28;20177;-68
2021/08/20 10:00:10;;;;;;;5.57;5.17;;;20.30;99.90;;;;;;5092339;28;20679;-68
2021/08/20 10:02:40;;;;;;;6.53;6.13;;;20.40;99.90;;;;;;5092189;28;20276;-68
2021/08/20 10:05:06;;;;;;;6.10;5.70;;;20.60;99.90;;;;;;5092554;28;20508;-68
2021/08/20 10:07:37;;;;;;;6.17;5.77;;;20.70;99.90;;;;;;5092310;28;20585;-68
2021/08/20 10:10:03;;;;;;;7.17;6.77;;;20.80;99.90;;;;;;5092271;28;20260;-67
2021/08/20 10:12:30;;;;;;;5.57;5.17;;;21.20;99.90;;;;;;5092067;28;20197;-69
2021/08/20 10:14:56;;;;;;;4.97;4.70;;;21.70;99.90;;;;;;5092220;28;20174;-68
2021/08/20 10:17:22;;;;;;;4.40;4.20;;;22.30;99.90;;;;;;5091949;28;20647;-68
2021/08/20 10:19:51;;;;;;;4.55;4.25;;;22.50;99.90;;;;;;5092011;28;20176;-68
2021/08/20 10:22:18;;;;;;;5.47;5.10;;;22.60;99.90;;;;;;5095233;22;20229;-68
2021/08/20 10:24:44;;;;;;;4.80;4.60;;;22.90;99.90;;;;;;5071641;28;20281;-69
2021/08/20 10:27:11;;;;;;;4.30;4.10;;;22.80;99.90;;;;;;5071454;28;20274;-68
2021/08/20 10:29:45;;;;;;;4.40;4.20;;;23.00;99.90;;;;;;5071713;28;20667;-68
2021/08/20 10:32:11;;;;;;;6.63;4.47;;;23.10;99.90;;;;;;5071544;28;20189;-69
2021/08/20 10:34:41;;;;;;;4.40;4.20;;;23.50;99.90;;;;;;5071540;28;20185;-69
2021/08/20 10:37:08;;;;;;;3.83;3.63;;;24.30;99.90;;;;;;5071621;28;20174;-68
2021/08/20 10:39:33;;;;;;;4.10;3.90;;;24.50;99.90;;;;;;5071601;28;20170;-68
2021/08/20 10:42:06;;;;;;;4.07;3.88;;;24.60;99.90;;;;;;5070087;28;20217;-68
2021/08/20 10:44:37;;;;;;;4.30;4.10;;;23.90;99.90;;;;;;5071774;28;20570;-68
2021/08/20 10:47:03;;;;;;;4.25;3.95;;;23.70;99.90;;;;;;5071348;28;20238;-68
2021/08/20 10:49:36;;;;;;;4.30;4.00;;;23.80;99.90;;;;;;5071641;28;20265;-68
2021/08/20 10:52:02;;;;;;;4.63;4.43;;;24.00;99.90;;;;;;5071184;28;20697;-68
2021/08/20 10:54:31;;;;;;;4.15;3.95;;;24.00;99.90;;;;;;5071615;28;20197;-68
2021/08/20 10:57:04;;;;;;;5.93;5.40;;;24.00;99.90;;;;;;5070684;28;20171;-68
2021/08/20 10:59:38;;;;;;;4.55;4.28;;;23.80;99.90;;;;;;5051203;28;20703;-68
2021/08/20 11:02:19;;;;;;;4.60;4.40;;;23.60;99.90;;;;;;5056826;28;20654;-68
2021/08/20 11:05:03;;;;;;;4.43;4.00;;;23.50;99.90;;;;;;5071264;28;20204;-68
2021/08/20 11:07:37;;;;;;;4.70;4.50;;;23.10;99.90;;;;;;5071214;28;20178;-68
2021/08/20 11:10:12;;;;;;;4.78;4.47;;;23.00;99.90;;;;;;5070298;28;20173;-68
2021/08/20 11:12:44;;;;;;;4.70;4.40;;;23.00;99.90;;;;;;5070894;28;20197;-69
2021/08/20 11:15:22;;;;;;;4.63;4.32;;;23.30;99.90;;;;;;5071246;28;20575;-68
2021/08/20 11:17:49;;;;;;;5.50;5.10;;;23.70;99.90;;;;;;5071106;28;20170;-68
2021/08/20 11:20:37;;;;;;;4.90;4.50;;;24.00;99.90;;;;;;5070993;28;20178;-68
2021/08/20 11:25:44;;;;;;;4.93;4.65;;;25.40;99.90;;;;;;5071411;28;20166;-68
2021/08/20 11:28:24;;;;;;;4.35;4.07;;;25.90;99.90;;;;;;5072874;28;20181;-68
2021/08/20 11:30:55;;;;;;;4.03;3.80;;;26.30;99.90;;;;;;5069375;28;20248;-68
2021/08/20 11:33:47;;;;;;;4.63;4.32;;;26.10;99.90;;;;;;5055160;28;20253;-68
2021/08/20 11:36:18;;;;;;;5.30;5.00;;;25.90;99.90;;;;;;5073858;28;20658;-68
2021/08/20 11:38:59;;;;;;;4.90;4.60;;;25.30;99.90;;;;;;5073774;28;20669;-68
2021/08/20 11:41:44;;;;;;;4.70;4.40;;;24.50;99.90;;;;;;5071837;28;20193;-68
2021/08/20 11:44:14;;;;;;;4.60;4.30;;;24.20;99.90;;;;;;5061125;28;20359;-68
2021/08/20 11:46:42;;;;;;;4.60;4.30;;;24.00;99.90;;;;;;5074468;28;20269;-69
2021/08/20 11:49:09;;;;;;;4.50;4.30;;;23.90;99.90;;;;;;5074191;28;20654;-68
2021/08/20 11:51:39;;;;;;;4.57;4.18;;;23.90;99.90;;;;;;5072351;28;20194;-68
2021/08/20 11:54:07;;;;;;;4.70;4.50;;;24.10;99.90;;;;;;5073931;28;20238;-68
2021/08/20 11:56:34;;;;;;;4.28;4.07;;;24.20;99.90;;;;;;5074628;28;20272;-68
2021/08/20 11:59:10;;;;;;;4.20;4.00;;;24.40;99.90;;;;;;5072651;28;20186;-68
2021/08/20 12:01:38;;;;;;;4.00;3.80;;;24.70;99.90;;;;;;5073995;28;20292;-68
2021/08/20 12:04:06;;;;;;;4.65;4.35;;;24.70;99.90;;;;;;5073324;28;20205;-69
2021/08/20 12:06:33;;;;;;;4.38;4.18;;;25.20;99.90;;;;;;5074401;28;20247;-68
2021/08/20 12:09:28;;;;;;;4.00;3.80;;;25.80;99.90;;;;;;5074057;28;20235;-68
2021/08/20 12:11:57;;;;;;;4.30;4.00;;;26.60;99.90;;;;;;5065191;28;20225;-68
2021/08/20 12:14:32;;;;;;;4.07;3.85;;;27.00;99.90;;;;;;5074240;28;20186;-68
2021/08/20 12:16:59;;;;;;;4.55;4.20;;;26.90;99.90;;;;;;5074161;28;20188;-65
2021/08/20 12:19:28;;;;;;;4.72;4.32;;;26.70;99.90;;;;;;5073515;28;20174;-66
2021/08/20 12:22:05;;;;;;;4.65;4.15;;;26.70;99.90;;;;;;5073783;28;20267;-68
2021/08/20 12:24:35;;;;;;;4.90;4.60;;;26.50;99.90;;;;;;5073633;28;20576;-66
2021/08/20 12:27:11;;;;;;;4.35;4.10;;;26.60;99.90;;;;;;5073013;28;20166;-67
2021/08/20 12:29:37;;;;;;;4.30;4.10;;;26.30;99.90;;;;;;5064950;28;20580;-66
2021/08/20 12:32:03;;;;;;;4.65;4.45;;;26.10;99.90;;;;;;5053799;28;20205;-66
2021/08/20 12:34:32;;;;;;;5.20;4.90;;;25.70;99.90;;;;;;5066497;28;20182;-65
2021/08/20 12:37:00;;;;;;;5.45;5.15;;;25.50;99.90;;;;;;5073005;28;20170;-68
2021/08/20 12:39:33;;;;;;;4.97;4.72;;;25.40;99.90;;;;;;5072572;28;20547;-68
2021/08/20 12:42:21;;;;;;;4.63;4.28;;;25.90;99.90;;;;;;5073180;28;20624;-68
2021/08/20 12:44:47;;;;;;;4.85;4.55;;;26.60;99.90;;;;;;5072462;28;20276;-66